Joyceton, North Carolina
Current Conditions -  °F | °C
As of 8:15 PM on Tuesday 21 Oct 2014 (Local Time) from KMRN Reporting Station
Scattered Clouds Scattered Clouds  
Wind Chill: 59°   Ceiling: Unl
Heat Index: 59°   Visibility: 10mi
Dew Point: 38°   Wind: 7mph
Humidity: 47%   Direction: 350°N
Pressure: 30.02"   Gusts: NA
Location:  35.9726°N, 81.5331°W
Report Text: KMRN 220015Z AUTO 35006KT 10SM SCT065 15/04 A3002 RMK AO2 T01480035
Loading
Personal Weather Stations






























Interactive Weather Map
Tropical Storm Tracking
New forecast layout! Learn more

10-Day Weather Forecast

Advertisements
Track Severe Weather on mobile